sensor_id;sensor_type;location;lat;lon;timestamp;P1;durP1;ratioP1;P2;durP2;ratioP2
51304;SDS011;37392;50.964;6.952;2023-06-14T00:00:18;8.40;;;5.25;;
51304;SDS011;37392;50.964;6.952;2023-06-14T00:02:44;7.65;;;5.45;;
51304;SDS011;37392;50.964;6.952;2023-06-14T00:05:10;9.35;;;5.22;;
51304;SDS011;37392;50.964;6.952;2023-06-14T00:07:41;12.88;;;6.32;;
51304;SDS011;37392;50.964;6.952;2023-06-14T00:10:13;17.27;;;5.70;;
51304;SDS011;37392;50.964;6.952;2023-06-14T00:12:39;10.35;;;5.88;;
51304;SDS011;37392;50.964;6.952;2023-06-14T00:15:06;13.52;;;5.03;;
51304;SDS011;37392;50.964;6.952;2023-06-14T00:17:36;8.48;;;5.22;;
51304;SDS011;37392;50.964;6.952;2023-06-14T00:20:04;13.65;;;5.30;;
51304;SDS011;37392;50.964;6.952;2023-06-14T00:22:32;9.90;;;5.20;;
51304;SDS011;37392;50.964;6.952;2023-06-14T00:24:58;11.73;;;5.45;;
51304;SDS011;37392;50.964;6.952;2023-06-14T00:27:23;11.77;;;5.35;;
51304;SDS011;37392;50.964;6.952;2023-06-14T00:29:49;11.32;;;6.07;;
51304;SDS011;37392;50.964;6.952;2023-06-14T00:32:15;8.02;;;5.68;;
51304;SDS011;37392;50.964;6.952;2023-06-14T00:34:41;11.73;;;5.80;;
51304;SDS011;37392;50.964;6.952;2023-06-14T00:37:06;10.77;;;5.93;;
51304;SDS011;37392;50.964;6.952;2023-06-14T00:39:32;12.48;;;6.30;;
51304;SDS011;37392;50.964;6.952;2023-06-14T00:41:58;7.97;;;5.13;;
51304;SDS011;37392;50.964;6.952;2023-06-14T00:44:24;10.32;;;5.35;;
51304;SDS011;37392;50.964;6.952;2023-06-14T00:46:50;11.13;;;6.45;;
51304;SDS011;37392;50.964;6.952;2023-06-14T00:49:16;12.48;;;5.35;;
51304;SDS011;37392;50.964;6.952;2023-06-14T00:51:43;13.95;;;5.25;;
51304;SDS011;37392;50.964;6.952;2023-06-14T00:54:09;11.68;;;5.45;;
51304;SDS011;37392;50.964;6.952;2023-06-14T00:56:37;9.40;;;6.00;;
51304;SDS011;37392;50.964;6.952;2023-06-14T00:59:04;17.75;;;6.07;;
51304;SDS011;37392;50.964;6.952;2023-06-14T01:01:31;10.55;;;6.38;;
51304;SDS011;37392;50.964;6.952;2023-06-14T01:03:59;9.30;;;5.18;;
51304;SDS011;37392;50.964;6.952;2023-06-14T01:06:51;8.43;;;5.55;;
51304;SDS011;37392;50.964;6.952;2023-06-14T01:09:40;17.90;;;6.03;;
51304;SDS011;37392;50.964;6.952;2023-06-14T01:12:20;11.15;;;5.88;;
51304;SDS011;37392;50.964;6.952;2023-06-14T01:14:51;17.50;;;5.97;;
51304;SDS011;37392;50.964;6.952;2023-06-14T01:17:20;8.30;;;5.45;;
51304;SDS011;37392;50.964;6.952;2023-06-14T01:19:48;17.23;;;6.55;;
51304;SDS011;37392;50.964;6.952;2023-06-14T01:22:14;12.52;;;6.50;;
51304;SDS011;37392;50.964;6.952;2023-06-14T01:24:40;16.13;;;6.28;;
51304;SDS011;37392;50.964;6.952;2023-06-14T01:27:09;10.43;;;7.43;;
51304;SDS011;37392;50.964;6.952;2023-06-14T01:29:36;16.85;;;6.75;;
51304;SDS011;37392;50.964;6.952;2023-06-14T01:32:02;9.93;;;5.63;;
51304;SDS011;37392;50.964;6.952;2023-06-14T01:34:29;8.77;;;5.47;;
51304;SDS011;37392;50.964;6.952;2023-06-14T01:36:55;12.10;;;5.80;;
51304;SDS011;37392;50.964;6.952;2023-06-14T01:39:21;10.40;;;5.30;;
51304;SDS011;37392;50.964;6.952;2023-06-14T01:41:48;10.57;;;5.82;;
51304;SDS011;37392;50.964;6.952;2023-06-14T01:44:16;12.32;;;5.90;;
51304;SDS011;37392;50.964;6.952;2023-06-14T01:46:43;11.05;;;5.88;;
51304;SDS011;37392;50.964;6.952;2023-06-14T01:49:10;7.78;;;5.75;;
51304;SDS011;37392;50.964;6.952;2023-06-14T01:51:36;9.65;;;4.85;;
51304;SDS011;37392;50.964;6.952;2023-06-14T01:54:02;10.88;;;5.50;;
51304;SDS011;37392;50.964;6.952;2023-06-14T01:56:28;8.23;;;4.80;;
51304;SDS011;37392;50.964;6.952;2023-06-14T01:58:53;15.05;;;6.05;;
51304;SDS011;37392;50.964;6.952;2023-06-14T02:01:19;11.80;;;5.72;;
51304;SDS011;37392;50.964;6.952;2023-06-14T02:03:46;21.27;;;6.50;;
51304;SDS011;37392;50.964;6.952;2023-06-14T02:06:14;6.57;;;4.43;;
51304;SDS011;37392;50.964;6.952;2023-06-14T02:08:41;9.43;;;5.07;;
51304;SDS011;37392;50.964;6.952;2023-06-14T02:11:07;9.20;;;5.35;;
51304;SDS011;37392;50.964;6.952;2023-06-14T02:13:33;14.60;;;5.50;;
51304;SDS011;37392;50.964;6.952;2023-06-14T02:15:59;8.18;;;5.55;;
51304;SDS011;37392;50.964;6.952;2023-06-14T02:18:25;8.40;;;5.13;;
51304;SDS011;37392;50.964;6.952;2023-06-14T02:20:52;8.07;;;5.63;;
51304;SDS011;37392;50.964;6.952;2023-06-14T02:23:18;15.25;;;6.03;;
51304;SDS011;37392;50.964;6.952;2023-06-14T02:25:43;10.10;;;5.32;;
51304;SDS011;37392;50.964;6.952;2023-06-14T02:28:11;12.95;;;5.30;;
51304;SDS011;37392;50.964;6.952;2023-06-14T02:30:36;6.72;;;4.60;;
51304;SDS011;37392;50.964;6.952;2023-06-14T02:33:02;7.88;;;4.03;;
51304;SDS011;37392;50.964;6.952;2023-06-14T02:35:28;7.15;;;5.20;;
51304;SDS011;37392;50.964;6.952;2023-06-14T02:37:55;11.68;;;4.65;;
51304;SDS011;37392;50.964;6.952;2023-06-14T02:40:20;7.45;;;5.15;;
51304;SDS011;37392;50.964;6.952;2023-06-14T02:42:46;9.13;;;5.10;;
51304;SDS011;37392;50.964;6.952;2023-06-14T02:45:12;9.13;;;5.95;;
51304;SDS011;37392;50.964;6.952;2023-06-14T02:47:37;11.23;;;5.28;;
51304;SDS011;37392;50.964;6.952;2023-06-14T02:50:03;10.50;;;6.88;;
51304;SDS011;37392;50.964;6.952;2023-06-14T02:52:29;7.03;;;4.70;;
51304;SDS011;37392;50.964;6.952;2023-06-14T02:54:55;12.52;;;5.68;;
51304;SDS011;37392;50.964;6.952;2023-06-14T02:57:21;12.35;;;5.28;;
51304;SDS011;37392;50.964;6.952;2023-06-14T02:59:47;12.70;;;5.05;;
51304;SDS011;37392;50.964;6.952;2023-06-14T03:02:14;8.25;;;4.72;;
51304;SDS011;37392;50.964;6.952;2023-06-14T03:04:39;12.05;;;5.63;;
51304;SDS011;37392;50.964;6.952;2023-06-14T03:07:05;11.60;;;4.82;;
51304;SDS011;37392;50.964;6.952;2023-06-14T03:09:37;7.25;;;4.28;;
51304;SDS011;37392;50.964;6.952;2023-06-14T03:12:04;6.75;;;5.00;;
51304;SDS011;37392;50.964;6.952;2023-06-14T03:14:32;7.95;;;4.80;;
51304;SDS011;37392;50.964;6.952;2023-06-14T03:16:58;7.75;;;4.63;;
51304;SDS011;37392;50.964;6.952;2023-06-14T03:19:23;10.85;;;4.45;;
51304;SDS011;37392;50.964;6.952;2023-06-14T03:21:51;14.48;;;5.00;;
51304;SDS011;37392;50.964;6.952;2023-06-14T03:24:17;7.45;;;5.03;;
51304;SDS011;37392;50.964;6.952;2023-06-14T03:26:42;10.88;;;4.63;;
51304;SDS011;37392;50.964;6.952;2023-06-14T03:29:08;10.10;;;5.28;;
51304;SDS011;37392;50.964;6.952;2023-06-14T03:31:34;8.75;;;5.22;;
51304;SDS011;37392;50.964;6.952;2023-06-14T03:34:03;11.65;;;5.70;;
51304;SDS011;37392;50.964;6.952;2023-06-14T03:36:28;9.02;;;4.95;;
51304;SDS011;37392;50.964;6.952;2023-06-14T03:38:54;14.48;;;5.18;;
51304;SDS011;37392;50.964;6.952;2023-06-14T03:41:20;14.52;;;6.30;;
51304;SDS011;37392;50.964;6.952;2023-06-14T03:43:45;19.95;;;5.68;;
51304;SDS011;37392;50.964;6.952;2023-06-14T03:46:11;25.58;;;4.95;;
51304;SDS011;37392;50.964;6.952;2023-06-14T03:48:37;15.95;;;5.38;;
51304;SDS011;37392;50.964;6.952;2023-06-14T03:51:03;14.35;;;5.13;;
51304;SDS011;37392;50.964;6.952;2023-06-14T03:53:29;17.55;;;5.05;;
51304;SDS011;37392;50.964;6.952;2023-06-14T03:55:55;8.60;;;4.68;;
51304;SDS011;37392;50.964;6.952;2023-06-14T03:58:22;10.52;;;5.07;;
51304;SDS011;37392;50.964;6.952;2023-06-14T04:00:47;11.30;;;5.43;;
51304;SDS011;37392;50.964;6.952;2023-06-14T04:03:13;9.10;;;4.70;;
51304;SDS011;37392;50.964;6.952;2023-06-14T04:05:40;9.82;;;5.00;;
51304;SDS011;37392;50.964;6.952;2023-06-14T04:08:07;10.38;;;4.65;;
51304;SDS011;37392;50.964;6.952;2023-06-14T04:10:35;6.95;;;4.55;;
51304;SDS011;37392;50.964;6.952;2023-06-14T04:13:01;9.57;;;3.88;;
51304;SDS011;37392;50.964;6.952;2023-06-14T04:15:26;14.13;;;5.25;;
51304;SDS011;37392;50.964;6.952;2023-06-14T04:17:55;8.68;;;4.30;;
51304;SDS011;37392;50.964;6.952;2023-06-14T04:20:22;6.80;;;4.65;;
51304;SDS011;37392;50.964;6.952;2023-06-14T04:22:49;8.57;;;4.65;;
51304;SDS011;37392;50.964;6.952;2023-06-14T04:25:16;12.75;;;4.45;;
51304;SDS011;37392;50.964;6.952;2023-06-14T04:27:42;6.30;;;4.50;;
51304;SDS011;37392;50.964;6.952;2023-06-14T04:30:09;9.75;;;4.95;;
51304;SDS011;37392;50.964;6.952;2023-06-14T04:32:35;8.18;;;4.50;;
51304;SDS011;37392;50.964;6.952;2023-06-14T04:35:07;16.08;;;5.47;;
51304;SDS011;37392;50.964;6.952;2023-06-14T04:37:33;7.40;;;4.43;;
51304;SDS011;37392;50.964;6.952;2023-06-14T04:39:59;8.95;;;4.65;;
51304;SDS011;37392;50.964;6.952;2023-06-14T04:42:25;6.65;;;4.10;;
51304;SDS011;37392;50.964;6.952;2023-06-14T04:44:55;7.88;;;5.07;;
51304;SDS011;37392;50.964;6.952;2023-06-14T04:47:21;15.48;;;4.50;;
51304;SDS011;37392;50.964;6.952;2023-06-14T04:49:47;13.77;;;4.40;;
51304;SDS011;37392;50.964;6.952;2023-06-14T04:52:12;10.45;;;3.72;;
51304;SDS011;37392;50.964;6.952;2023-06-14T04:54:39;15.90;;;4.90;;
51304;SDS011;37392;50.964;6.952;2023-06-14T04:57:10;7.85;;;3.78;;
51304;SDS011;37392;50.964;6.952;2023-06-14T04:59:42;10.93;;;5.00;;
51304;SDS011;37392;50.964;6.952;2023-06-14T05:02:09;10.60;;;3.95;;
51304;SDS011;37392;50.964;6.952;2023-06-14T05:04:36;8.55;;;4.10;;
51304;SDS011;37392;50.964;6.952;2023-06-14T05:07:05;5.28;;;4.25;;
51304;SDS011;37392;50.964;6.952;2023-06-14T05:09:34;11.15;;;3.85;;
51304;SDS011;37392;50.964;6.952;2023-06-14T05:12:01;12.00;;;4.45;;
51304;SDS011;37392;50.964;6.952;2023-06-14T05:14:27;7.65;;;4.18;;
51304;SDS011;37392;50.964;6.952;2023-06-14T05:16:53;8.45;;;4.28;;
51304;SDS011;37392;50.964;6.952;2023-06-14T05:19:21;15.15;;;4.53;;
51304;SDS011;37392;50.964;6.952;2023-06-14T05:21:47;12.43;;;4.57;;
51304;SDS011;37392;50.964;6.952;2023-06-14T05:24:13;15.45;;;4.63;;
51304;SDS011;37392;50.964;6.952;2023-06-14T05:26:39;13.80;;;3.88;;
51304;SDS011;37392;50.964;6.952;2023-06-14T05:29:11;8.93;;;4.85;;
51304;SDS011;37392;50.964;6.952;2023-06-14T05:31:37;10.73;;;4.22;;
51304;SDS011;37392;50.964;6.952;2023-06-14T05:34:02;7.47;;;3.90;;
51304;SDS011;37392;50.964;6.952;2023-06-14T05:36:29;9.52;;;3.53;;
51304;SDS011;37392;50.964;6.952;2023-06-14T05:38:54;12.65;;;4.10;;
51304;SDS011;37392;50.964;6.952;2023-06-14T05:41:27;6.68;;;3.55;;
51304;SDS011;37392;50.964;6.952;2023-06-14T05:43:54;11.75;;;3.75;;
51304;SDS011;37392;50.964;6.952;2023-06-14T05:46:23;5.93;;;3.63;;
51304;SDS011;37392;50.964;6.952;2023-06-14T05:48:53;8.10;;;3.80;;
51304;SDS011;37392;50.964;6.952;2023-06-14T05:51:20;5.13;;;3.70;;
51304;SDS011;37392;50.964;6.952;2023-06-14T05:53:49;8.63;;;3.75;;
51304;SDS011;37392;50.964;6.952;2023-06-14T05:56:15;4.00;;;3.30;;
51304;SDS011;37392;50.964;6.952;2023-06-14T05:58:45;12.52;;;3.53;;
51304;SDS011;37392;50.964;6.952;2023-06-14T06:01:11;11.40;;;3.20;;
51304;SDS011;37392;50.964;6.952;2023-06-14T06:03:38;14.73;;;3.20;;
51304;SDS011;37392;50.964;6.952;2023-06-14T06:06:04;9.70;;;3.65;;
51304;SDS011;37392;50.964;6.952;2023-06-14T06:08:29;7.07;;;3.15;;
51304;SDS011;37392;50.964;6.952;2023-06-14T06:10:56;9.63;;;4.07;;
51304;SDS011;37392;50.964;6.952;2023-06-14T06:13:22;11.05;;;3.35;;
51304;SDS011;37392;50.964;6.952;2023-06-14T06:15:47;9.98;;;3.80;;
51304;SDS011;37392;50.964;6.952;2023-06-14T06:18:13;7.30;;;3.40;;
51304;SDS011;37392;50.964;6.952;2023-06-14T06:20:39;7.00;;;3.33;;
51304;SDS011;37392;50.964;6.952;2023-06-14T06:23:05;11.10;;;2.92;;
51304;SDS011;37392;50.964;6.952;2023-06-14T06:25:30;7.30;;;3.05;;
51304;SDS011;37392;50.964;6.952;2023-06-14T06:27:56;12.48;;;3.40;;
51304;SDS011;37392;50.964;6.952;2023-06-14T06:30:23;6.97;;;2.67;;
51304;SDS011;37392;50.964;6.952;2023-06-14T06:32:49;9.38;;;2.72;;
51304;SDS011;37392;50.964;6.952;2023-06-14T06:35:15;6.88;;;2.90;;
51304;SDS011;37392;50.964;6.952;2023-06-14T06:37:41;8.48;;;2.83;;
51304;SDS011;37392;50.964;6.952;2023-06-14T06:40:07;11.70;;;2.60;;
51304;SDS011;37392;50.964;6.952;2023-06-14T06:42:33;10.32;;;3.13;;
51304;SDS011;37392;50.964;6.952;2023-06-14T06:45:00;9.93;;;3.10;;
51304;SDS011;37392;50.964;6.952;2023-06-14T06:47:25;11.10;;;2.95;;
51304;SDS011;37392;50.964;6.952;2023-06-14T06:49:54;8.80;;;2.95;;
51304;SDS011;37392;50.964;6.952;2023-06-14T06:52:20;7.50;;;2.45;;
51304;SDS011;37392;50.964;6.952;2023-06-14T06:54:48;7.32;;;2.97;;
51304;SDS011;37392;50.964;6.952;2023-06-14T06:57:15;5.50;;;2.60;;
51304;SDS011;37392;50.964;6.952;2023-06-14T06:59:41;13.07;;;2.92;;
51304;SDS011;37392;50.964;6.952;2023-06-14T07:02:06;8.52;;;2.75;;
51304;SDS011;37392;50.964;6.952;2023-06-14T07:04:32;7.88;;;2.78;;
51304;SDS011;37392;50.964;6.952;2023-06-14T07:06:58;12.45;;;2.85;;
51304;SDS011;37392;50.964;6.952;2023-06-14T07:09:23;6.22;;;2.53;;
51304;SDS011;37392;50.964;6.952;2023-06-14T07:11:49;9.82;;;3.53;;
51304;SDS011;37392;50.964;6.952;2023-06-14T07:14:15;15.43;;;2.70;;
51304;SDS011;37392;50.964;6.952;2023-06-14T07:16:40;11.00;;;2.67;;
51304;SDS011;37392;50.964;6.952;2023-06-14T07:19:06;8.07;;;2.78;;
51304;SDS011;37392;50.964;6.952;2023-06-14T07:21:32;8.70;;;2.92;;
51304;SDS011;37392;50.964;6.952;2023-06-14T07:23:58;8.15;;;2.80;;
51304;SDS011;37392;50.964;6.952;2023-06-14T07:26:23;9.20;;;2.45;;
51304;SDS011;37392;50.964;6.952;2023-06-14T07:28:49;4.43;;;2.85;;
51304;SDS011;37392;50.964;6.952;2023-06-14T07:31:16;5.05;;;2.53;;
51304;SDS011;37392;50.964;6.952;2023-06-14T07:33:42;5.57;;;2.15;;
51304;SDS011;37392;50.964;6.952;2023-06-14T07:36:08;5.95;;;2.65;;
51304;SDS011;37392;50.964;6.952;2023-06-14T07:38:33;13.98;;;2.50;;
51304;SDS011;37392;50.964;6.952;2023-06-14T07:40:59;10.07;;;2.63;;
51304;SDS011;37392;50.964;6.952;2023-06-14T07:43:25;5.35;;;2.20;;
51304;SDS011;37392;50.964;6.952;2023-06-14T07:45:51;7.38;;;2.03;;
51304;SDS011;37392;50.964;6.952;2023-06-14T07:48:16;9.48;;;2.08;;
51304;SDS011;37392;50.964;6.952;2023-06-14T07:50:43;7.35;;;2.33;;
51304;SDS011;37392;50.964;6.952;2023-06-14T07:53:08;7.65;;;2.00;;
51304;SDS011;37392;50.964;6.952;2023-06-14T07:55:34;3.10;;;1.67;;
51304;SDS011;37392;50.964;6.952;2023-06-14T07:58:02;4.40;;;1.48;;
51304;SDS011;37392;50.964;6.952;2023-06-14T08:00:28;1.88;;;1.67;;
51304;SDS011;37392;50.964;6.952;2023-06-14T08:02:54;9.20;;;1.85;;
51304;SDS011;37392;50.964;6.952;2023-06-14T08:05:24;4.07;;;2.53;;
51304;SDS011;37392;50.964;6.952;2023-06-14T08:07:57;8.88;;;1.40;;
51304;SDS011;37392;50.964;6.952;2023-06-14T08:10:22;3.05;;;1.30;;
51304;SDS011;37392;50.964;6.952;2023-06-14T08:12:48;2.83;;;1.25;;
51304;SDS011;37392;50.964;6.952;2023-06-14T08:15:17;1.42;;;1.30;;
51304;SDS011;37392;50.964;6.952;2023-06-14T08:17:43;2.92;;;1.33;;
51304;SDS011;37392;50.964;6.952;2023-06-14T08:20:09;1.95;;;1.63;;
51304;SDS011;37392;50.964;6.952;2023-06-14T08:22:36;3.17;;;1.77;;
51304;SDS011;37392;50.964;6.952;2023-06-14T08:25:02;2.78;;;2.20;;
51304;SDS011;37392;50.964;6.952;2023-06-14T08:27:29;3.58;;;2.00;;
51304;SDS011;37392;50.964;6.952;2023-06-14T08:29:55;3.17;;;1.50;;
51304;SDS011;37392;50.964;6.952;2023-06-14T08:32:21;2.75;;;1.48;;
51304;SDS011;37392;50.964;6.952;2023-06-14T08:34:47;4.90;;;2.08;;
51304;SDS011;37392;50.964;6.952;2023-06-14T08:37:13;2.65;;;1.35;;
51304;SDS011;37392;50.964;6.952;2023-06-14T08:39:38;4.57;;;1.75;;
51304;SDS011;37392;50.964;6.952;2023-06-14T08:42:04;3.55;;;1.40;;
51304;SDS011;37392;50.964;6.952;2023-06-14T08:44:32;6.72;;;2.13;;
51304;SDS011;37392;50.964;6.952;2023-06-14T08:47:01;2.10;;;1.73;;
51304;SDS011;37392;50.964;6.952;2023-06-14T08:51:57;6.88;;;2.00;;
51304;SDS011;37392;50.964;6.952;2023-06-14T08:54:25;6.13;;;1.55;;
51304;SDS011;37392;50.964;6.952;2023-06-14T08:59:23;2.45;;;1.40;;
51304;SDS011;37392;50.964;6.952;2023-06-14T09:01:54;3.45;;;1.80;;
51304;SDS011;37392;50.964;6.952;2023-06-14T09:04:23;2.47;;;1.55;;
51304;SDS011;37392;50.964;6.952;2023-06-14T09:06:54;13.02;;;1.80;;
51304;SDS011;37392;50.964;6.952;2023-06-14T09:09:29;2.60;;;1.67;;
51304;SDS011;37392;50.964;6.952;2023-06-14T09:11:55;4.22;;;1.58;;
51304;SDS011;37392;50.964;6.952;2023-06-14T09:14:23;4.25;;;1.60;;
51304;SDS011;37392;50.964;6.952;2023-06-14T09:16:53;1.90;;;1.48;;
51304;SDS011;37392;50.964;6.952;2023-06-14T09:19:25;1.85;;;1.58;;
51304;SDS011;37392;50.964;6.952;2023-06-14T09:21:52;5.35;;;2.08;;
51304;SDS011;37392;50.964;6.952;2023-06-14T09:24:18;5.85;;;1.38;;
51304;SDS011;37392;50.964;6.952;2023-06-14T09:26:47;3.78;;;1.58;;
51304;SDS011;37392;50.964;6.952;2023-06-14T09:29:17;3.80;;;1.60;;
51304;SDS011;37392;50.964;6.952;2023-06-14T09:31:45;3.63;;;1.60;;
51304;SDS011;37392;50.964;6.952;2023-06-14T09:34:11;3.92;;;1.70;;
51304;SDS011;37392;50.964;6.952;2023-06-14T09:36:37;3.35;;;1.50;;
51304;SDS011;37392;50.964;6.952;2023-06-14T09:44:04;4.10;;;1.80;;
51304;SDS011;37392;50.964;6.952;2023-06-14T09:46:32;7.63;;;1.60;;
51304;SDS011;37392;50.964;6.952;2023-06-14T09:48:59;6.32;;;1.83;;
51304;SDS011;37392;50.964;6.952;2023-06-14T09:51:26;2.50;;;1.50;;
51304;SDS011;37392;50.964;6.952;2023-06-14T09:53:55;7.72;;;1.98;;
51304;SDS011;37392;50.964;6.952;2023-06-14T09:56:30;8.27;;;1.60;;
51304;SDS011;37392;50.964;6.952;2023-06-14T09:59:04;3.42;;;1.77;;
51304;SDS011;37392;50.964;6.952;2023-06-14T10:01:32;2.42;;;1.27;;
51304;SDS011;37392;50.964;6.952;2023-06-14T10:04:04;2.58;;;1.92;;
51304;SDS011;37392;50.964;6.952;2023-06-14T10:06:31;2.00;;;1.80;;
51304;SDS011;37392;50.964;6.952;2023-06-14T10:09:04;1.95;;;1.75;;
51304;SDS011;37392;50.964;6.952;2023-06-14T10:11:35;4.65;;;2.67;;
51304;SDS011;37392;50.964;6.952;2023-06-14T10:14:09;5.88;;;1.85;;
51304;SDS011;37392;50.964;6.952;2023-06-14T10:16:39;4.80;;;2.10;;
51304;SDS011;37392;50.964;6.952;2023-06-14T10:19:25;5.05;;;3.10;;
51304;SDS011;37392;50.964;6.952;2023-06-14T10:24:42;2.08;;;1.40;;
51304;SDS011;37392;50.964;6.952;2023-06-14T10:27:09;8.23;;;2.25;;
51304;SDS011;37392;50.964;6.952;2023-06-14T10:32:20;2.45;;;1.20;;
51304;SDS011;37392;50.964;6.952;2023-06-14T10:37:26;2.90;;;1.45;;
51304;SDS011;37392;50.964;6.952;2023-06-14T10:39:52;6.32;;;4.22;;
51304;SDS011;37392;50.964;6.952;2023-06-14T10:42:20;4.43;;;1.50;;
51304;SDS011;37392;50.964;6.952;2023-06-14T10:44:51;6.32;;;1.60;;
51304;SDS011;37392;50.964;6.952;2023-06-14T10:50:07;3.75;;;1.80;;
51304;SDS011;37392;50.964;6.952;2023-06-14T10:52:40;5.28;;;1.55;;
51304;SDS011;37392;50.964;6.952;2023-06-14T10:55:09;3.45;;;2.00;;
51304;SDS011;37392;50.964;6.952;2023-06-14T10:57:52;2.97;;;1.38;;
51304;SDS011;37392;50.964;6.952;2023-06-14T11:00:24;2.40;;;1.52;;
51304;SDS011;37392;50.964;6.952;2023-06-14T11:06:02;6.25;;;2.53;;
51304;SDS011;37392;50.964;6.952;2023-06-14T11:09:09;5.30;;;1.65;;
51304;SDS011;37392;50.964;6.952;2023-06-14T11:12:04;6.57;;;2.10;;
51304;SDS011;37392;50.964;6.952;2023-06-14T11:14:35;3.08;;;2.25;;
51304;SDS011;37392;50.964;6.952;2023-06-14T11:17:01;6.25;;;2.10;;
51304;SDS011;37392;50.964;6.952;2023-06-14T11:19:27;6.70;;;2.13;;
51304;SDS011;37392;50.964;6.952;2023-06-14T11:21:54;2.60;;;1.63;;
51304;SDS011;37392;50.964;6.952;2023-06-14T11:24:20;6.97;;;1.60;;
51304;SDS011;37392;50.964;6.952;2023-06-14T11:26:46;6.35;;;1.73;;
51304;SDS011;37392;50.964;6.952;2023-06-14T11:29:14;4.88;;;1.70;;
51304;SDS011;37392;50.964;6.952;2023-06-14T11:31:44;2.33;;;1.67;;
51304;SDS011;37392;50.964;6.952;2023-06-14T11:34:10;7.03;;;1.88;;
51304;SDS011;37392;50.964;6.952;2023-06-14T11:36:38;4.63;;;1.50;;
51304;SDS011;37392;50.964;6.952;2023-06-14T11:39:06;4.88;;;1.98;;
51304;SDS011;37392;50.964;6.952;2023-06-14T11:41:36;7.88;;;2.28;;
51304;SDS011;37392;50.964;6.952;2023-06-14T11:44:11;6.78;;;1.40;;
51304;SDS011;37392;50.964;6.952;2023-06-14T11:46:37;5.82;;;2.75;;
51304;SDS011;37392;50.964;6.952;2023-06-14T11:49:03;4.95;;;2.67;;
51304;SDS011;37392;50.964;6.952;2023-06-14T11:51:32;6.43;;;2.17;;
51304;SDS011;37392;50.964;6.952;2023-06-14T11:53:59;2.20;;;1.63;;
51304;SDS011;37392;50.964;6.952;2023-06-14T11:56:27;6.13;;;1.98;;
51304;SDS011;37392;50.964;6.952;2023-06-14T11:58:54;9.77;;;2.17;;
51304;SDS011;37392;50.964;6.952;2023-06-14T12:01:23;8.73;;;1.90;;
51304;SDS011;37392;50.964;6.952;2023-06-14T12:03:50;5.28;;;1.70;;
51304;SDS011;37392;50.964;6.952;2023-06-14T12:06:25;4.13;;;2.00;;
51304;SDS011;37392;50.964;6.952;2023-06-14T12:09:02;6.95;;;1.80;;
51304;SDS011;37392;50.964;6.952;2023-06-14T12:11:32;6.47;;;2.17;;
51304;SDS011;37392;50.964;6.952;2023-06-14T12:13:59;4.65;;;1.30;;
51304;SDS011;37392;50.964;6.952;2023-06-14T12:16:37;5.88;;;1.42;;
51304;SDS011;37392;50.964;6.952;2023-06-14T12:19:14;1.77;;;1.23;;
51304;SDS011;37392;50.964;6.952;2023-06-14T12:21:42;3.95;;;1.25;;
51304;SDS011;37392;50.964;6.952;2023-06-14T12:24:13;3.90;;;2.30;;
51304;SDS011;37392;50.964;6.952;2023-06-14T12:26:39;4.22;;;2.28;;
51304;SDS011;37392;50.964;6.952;2023-06-14T12:29:05;1.85;;;1.33;;
51304;SDS011;37392;50.964;6.952;2023-06-14T12:31:32;12.50;;;1.77;;
51304;SDS011;37392;50.964;6.952;2023-06-14T12:33:58;5.28;;;1.60;;
51304;SDS011;37392;50.964;6.952;2023-06-14T12:36:24;1.75;;;1.35;;
51304;SDS011;37392;50.964;6.952;2023-06-14T12:38:50;8.88;;;1.77;;
51304;SDS011;37392;50.964;6.952;2023-06-14T12:41:19;5.15;;;1.83;;
51304;SDS011;37392;50.964;6.952;2023-06-14T12:43:47;1.77;;;1.40;;
51304;SDS011;37392;50.964;6.952;2023-06-14T12:46:13;1.23;;;1.13;;
51304;SDS011;37392;50.964;6.952;2023-06-14T12:48:38;4.35;;;1.38;;
51304;SDS011;37392;50.964;6.952;2023-06-14T12:51:04;1.90;;;1.50;;
51304;SDS011;37392;50.964;6.952;2023-06-14T12:53:30;2.25;;;1.80;;
51304;SDS011;37392;50.964;6.952;2023-06-14T12:55:55;3.47;;;1.55;;
51304;SDS011;37392;50.964;6.952;2023-06-14T12:58:21;5.90;;;1.52;;
51304;SDS011;37392;50.964;6.952;2023-06-14T13:00:48;18.23;;;2.05;;
51304;SDS011;37392;50.964;6.952;2023-06-14T13:03:14;4.22;;;1.50;;
51304;SDS011;37392;50.964;6.952;2023-06-14T13:05:40;7.43;;;1.73;;
51304;SDS011;37392;50.964;6.952;2023-06-14T13:08:07;7.45;;;1.83;;
51304;SDS011;37392;50.964;6.952;2023-06-14T13:10:36;2.70;;;1.60;;
51304;SDS011;37392;50.964;6.952;2023-06-14T13:13:01;1.58;;;1.17;;
51304;SDS011;37392;50.964;6.952;2023-06-14T13:15:27;2.92;;;1.23;;
51304;SDS011;37392;50.964;6.952;2023-06-14T13:17:53;3.97;;;1.58;;
51304;SDS011;37392;50.964;6.952;2023-06-14T13:20:19;4.20;;;2.35;;
51304;SDS011;37392;50.964;6.952;2023-06-14T13:22:44;1.80;;;1.20;;
51304;SDS011;37392;50.964;6.952;2023-06-14T13:25:10;11.75;;;1.83;;
51304;SDS011;37392;50.964;6.952;2023-06-14T13:27:35;3.85;;;1.33;;
51304;SDS011;37392;50.964;6.952;2023-06-14T13:30:01;3.08;;;1.48;;
51304;SDS011;37392;50.964;6.952;2023-06-14T13:32:30;9.48;;;1.80;;
51304;SDS011;37392;50.964;6.952;2023-06-14T13:34:55;2.63;;;1.70;;
51304;SDS011;37392;50.964;6.952;2023-06-14T13:37:21;4.35;;;1.50;;
51304;SDS011;37392;50.964;6.952;2023-06-14T13:39:47;7.40;;;1.30;;
51304;SDS011;37392;50.964;6.952;2023-06-14T13:42:12;5.05;;;1.42;;
51304;SDS011;37392;50.964;6.952;2023-06-14T13:44:38;1.85;;;1.40;;
51304;SDS011;37392;50.964;6.952;2023-06-14T13:47:04;2.10;;;1.55;;
51304;SDS011;37392;50.964;6.952;2023-06-14T13:49:30;2.75;;;1.60;;
51304;SDS011;37392;50.964;6.952;2023-06-14T13:51:56;7.50;;;2.30;;
51304;SDS011;37392;50.964;6.952;2023-06-14T13:54:22;5.30;;;1.50;;
51304;SDS011;37392;50.964;6.952;2023-06-14T13:56:48;8.70;;;2.13;;
51304;SDS011;37392;50.964;6.952;2023-06-14T13:59:13;6.38;;;1.70;;
51304;SDS011;37392;50.964;6.952;2023-06-14T14:01:39;9.50;;;2.20;;
51304;SDS011;37392;50.964;6.952;2023-06-14T14:04:05;4.97;;;1.50;;
51304;SDS011;37392;50.964;6.952;2023-06-14T14:06:30;5.78;;;2.20;;
51304;SDS011;37392;50.964;6.952;2023-06-14T14:08:56;6.80;;;1.63;;
51304;SDS011;37392;50.964;6.952;2023-06-14T14:11:22;10.70;;;2.08;;
51304;SDS011;37392;50.964;6.952;2023-06-14T14:13:48;3.03;;;1.50;;
51304;SDS011;37392;50.964;6.952;2023-06-14T14:16:14;3.58;;;1.85;;
51304;SDS011;37392;50.964;6.952;2023-06-14T14:18:40;2.47;;;1.73;;
51304;SDS011;37392;50.964;6.952;2023-06-14T14:21:06;5.28;;;1.95;;
51304;SDS011;37392;50.964;6.952;2023-06-14T14:23:31;2.60;;;1.75;;
51304;SDS011;37392;50.964;6.952;2023-06-14T14:25:57;12.40;;;1.60;;
51304;SDS011;37392;50.964;6.952;2023-06-14T14:28:24;4.22;;;2.38;;
51304;SDS011;37392;50.964;6.952;2023-06-14T14:30:50;2.10;;;1.50;;
51304;SDS011;37392;50.964;6.952;2023-06-14T14:33:15;3.15;;;2.55;;
51304;SDS011;37392;50.964;6.952;2023-06-14T14:35:43;4.18;;;1.98;;
51304;SDS011;37392;50.964;6.952;2023-06-14T14:38:13;2.88;;;2.03;;
51304;SDS011;37392;50.964;6.952;2023-06-14T14:40:43;5.25;;;1.92;;
51304;SDS011;37392;50.964;6.952;2023-06-14T14:43:09;2.45;;;1.77;;
51304;SDS011;37392;50.964;6.952;2023-06-14T14:45:36;12.70;;;2.00;;
51304;SDS011;37392;50.964;6.952;2023-06-14T14:48:02;5.50;;;1.80;;
51304;SDS011;37392;50.964;6.952;2023-06-14T14:50:28;4.38;;;1.80;;
51304;SDS011;37392;50.964;6.952;2023-06-14T14:52:53;2.55;;;1.90;;
51304;SDS011;37392;50.964;6.952;2023-06-14T14:55:19;3.67;;;1.65;;
51304;SDS011;37392;50.964;6.952;2023-06-14T14:57:45;3.38;;;1.90;;
51304;SDS011;37392;50.964;6.952;2023-06-14T15:00:12;3.15;;;1.80;;
51304;SDS011;37392;50.964;6.952;2023-06-14T15:02:37;6.82;;;2.30;;
51304;SDS011;37392;50.964;6.952;2023-06-14T15:05:03;4.75;;;1.80;;
51304;SDS011;37392;50.964;6.952;2023-06-14T15:07:30;2.83;;;1.60;;